Terminal Aerodrome Forecast
Issued by NWS

Home | Current Version | Previous Version | Text Only | Print | Product List | Glossary On
Versions: 1 2 3 4 5 6 7 8 9 10 11 12 13 14 15 16 17 18 19 20 21 22 23 24 25 26 27 28
155
FTUS43 KLOT 290537
TAFORD
TAF
KORD 290537Z 2906/3012 01004KT 6SM BR BKN007 OVC012
     FM290800 VRB03KT 4SM BR BKN005
     FM291300 VRB03KT 6SM BR BKN009
     FM291500 07008KT P6SM VCSH BKN025 OVC050 PROB30 2918/2921 4SM
      SHRA
     FM292100 04010KT P6SM SCT040 BKN120
     FM300200 02006KT P6SM SCT040 BKN150=

USA.gov is the U.S. government's official web portal to all federal, state and local government web resources and services.